Terminal Aerodrome Forecast
Issued by NWS Tuscon, AZ

Home | Current Version | Previous Version | Text Only | Print | Product List | Glossary On
Versions: 1 2 3 4 5 6 7 8 9 10 11 12 13 14 15 16 17
000
FTUS45 KTWC 252331
TAFDUG
TAF
KDUG 252331Z 2600/2624 34014G22KT P6SM VCTS FEW050 SCT080CB BKN120
     FM260300 03010KT P6SM BKN120 OVC150
     FM260800 11005KT P6SM FEW120 SCT180
     FM261800 34012G18KT P6SM SCT100 BKN120=

USA.gov is the U.S. government's official web portal to all federal, state and local government web resources and services.